createdAt,value
2023-03-26T00:00:04.797Z,40.7946
2023-03-26T00:01:06.431Z,40.8385
2023-03-26T00:02:08.255Z,40.7523
2023-03-26T00:03:09.703Z,40.8692
2023-03-26T00:04:11.468Z,41.0438
2023-03-26T00:05:13.102Z,40.9415
2023-03-26T00:06:14.664Z,41.1038
2023-03-26T00:07:16.403Z,40.9708
2023-03-26T00:08:18.068Z,40.9985
2023-03-26T00:09:19.578Z,41.0377
2023-03-26T00:10:21.365Z,40.8038
2023-03-26T00:11:22.937Z,41.0892
2023-03-26T00:12:24.584Z,41.0492
2023-03-26T00:13:26.231Z,40.9585
2023-03-26T00:14:27.862Z,40.9877
2023-03-26T00:15:29.484Z,40.9431
2023-03-26T00:16:31.197Z,41.0900
2023-03-26T00:17:32.830Z,41.0600
2023-03-26T00:18:34.504Z,41.1854
2023-03-26T00:19:36.090Z,41.1262
2023-03-26T00:20:37.740Z,41.0608
2023-03-26T00:21:39.394Z,40.9715
2023-03-26T00:22:41.109Z,41.0762
2023-03-26T00:23:42.671Z,40.9538
2023-03-26T00:24:44.339Z,40.9877
2023-03-26T00:25:46.771Z,41.0285
2023-03-26T00:26:47.648Z,40.9723
2023-03-26T00:27:49.294Z,40.9777
2023-03-26T00:28:50.953Z,40.8946
2023-03-26T00:29:52.563Z,41.0654
2023-03-26T00:30:54.279Z,41.0754
2023-03-26T00:31:55.871Z,40.8562
2023-03-26T00:32:57.570Z,40.8923
2023-03-26T00:33:59.161Z,40.9869
2023-03-26T00:35:00.845Z,40.9623
2023-03-26T00:36:04.397Z,40.8192
2023-03-26T00:37:04.125Z,40.9685
2023-03-26T00:38:05.776Z,40.8869
2023-03-26T00:39:07.417Z,40.9646
2023-03-26T00:40:09.040Z,40.8369
2023-03-26T00:41:10.712Z,40.8731
2023-03-26T00:42:12.342Z,40.9385
2023-03-26T00:43:14.019Z,40.8554
2023-03-26T00:44:15.643Z,40.9431
2023-03-26T00:45:17.304Z,40.8446
2023-03-26T00:46:18.998Z,40.6792
2023-03-26T00:47:20.761Z,40.8623
2023-03-26T00:48:28.846Z,40.9800
2023-03-26T00:49:23.890Z,40.7815
2023-03-26T00:50:25.529Z,40.8346
2023-03-26T00:51:27.218Z,40.9162
2023-03-26T00:52:28.833Z,40.7077
2023-03-26T00:53:30.667Z,40.7908
2023-03-26T00:54:32.142Z,40.8577
2023-03-26T00:55:33.805Z,40.8223
2023-03-26T00:56:35.476Z,40.8785
2023-03-26T00:57:37.185Z,40.9892
2023-03-26T00:58:38.751Z,40.7792
2023-03-26T00:59:40.403Z,40.7231
2023-03-26T01:00:42.034Z,40.8262
2023-03-26T01:01:43.726Z,40.9277
2023-03-26T01:02:45.435Z,40.7400
2023-03-26T01:04:04.830Z,40.9677
2023-03-26T01:04:48.759Z,40.8038
2023-03-26T01:05:50.303Z,40.7254
2023-03-26T01:06:51.916Z,40.8315
2023-03-26T01:07:53.590Z,40.9031
2023-03-26T01:08:55.251Z,40.8523
2023-03-26T01:09:56.871Z,40.7200
2023-03-26T01:10:58.514Z,40.7823
2023-03-26T01:12:00.181Z,40.6677
2023-03-26T01:13:01.812Z,40.7192
2023-03-26T01:14:03.502Z,40.7215
2023-03-26T01:15:05.124Z,40.7415
2023-03-26T01:16:06.822Z,40.6992
2023-03-26T01:17:08.405Z,40.7062
2023-03-26T01:18:10.092Z,40.7977
2023-03-26T01:19:11.721Z,40.7569
2023-03-26T01:20:13.376Z,40.7192
2023-03-26T01:21:15.000Z,40.6846
2023-03-26T01:22:16.687Z,40.7254
2023-03-26T01:23:18.326Z,40.7615
2023-03-26T01:24:20.001Z,40.7723
2023-03-26T01:25:21.604Z,40.7792
2023-03-26T01:26:23.261Z,40.7431
2023-03-26T01:27:24.902Z,40.7015
2023-03-26T01:28:26.573Z,40.7385
2023-03-26T01:29:28.242Z,40.7262
2023-03-26T01:30:29.869Z,40.7546
2023-03-26T01:31:31.483Z,40.7577
2023-03-26T01:32:33.321Z,40.7231
2023-03-26T01:33:34.855Z,40.6769
2023-03-26T01:34:36.502Z,40.6692
2023-03-26T01:35:38.118Z,40.7292
2023-03-26T01:36:39.765Z,40.6485
2023-03-26T01:37:41.381Z,40.6677
2023-03-26T01:38:43.060Z,40.6785
2023-03-26T01:39:44.713Z,40.7262
2023-03-26T01:40:46.351Z,40.7215
2023-03-26T01:41:47.986Z,40.7646
2023-03-26T01:42:49.661Z,40.6892
2023-03-26T01:43:51.289Z,40.6462
2023-03-26T01:44:52.978Z,40.7077
2023-03-26T01:45:54.738Z,40.6985
2023-03-26T01:46:56.339Z,40.6900
2023-03-26T01:47:57.905Z,40.6500
2023-03-26T01:48:59.532Z,40.6654
2023-03-26T01:50:01.207Z,40.6515
2023-03-26T01:51:02.838Z,40.5585
2023-03-26T01:52:04.470Z,40.6054
2023-03-26T01:53:06.143Z,40.5869
2023-03-26T01:54:07.840Z,40.5962
2023-03-26T01:55:09.533Z,40.5546
2023-03-26T01:56:11.172Z,40.5538
2023-03-26T01:57:12.822Z,40.6346
2023-03-26T01:58:14.439Z,40.6577
2023-03-26T01:59:16.117Z,40.6362
2023-03-26T02:00:17.777Z,40.6531
2023-03-26T02:01:19.481Z,40.6392
2023-03-26T02:02:21.173Z,40.6523
2023-03-26T02:03:22.854Z,40.5992
2023-03-26T02:04:24.362Z,40.4823
2023-03-26T02:05:26.063Z,40.5169
2023-03-26T02:06:27.652Z,40.5685
2023-03-26T02:07:29.328Z,40.5592
2023-03-26T02:08:30.963Z,40.5277
2023-03-26T02:09:32.614Z,40.5485
2023-03-26T02:10:34.270Z,40.5677
2023-03-26T02:11:36.224Z,40.5554
2023-03-26T02:12:37.544Z,40.5931
2023-03-26T02:13:39.217Z,40.5469
2023-03-26T02:14:40.862Z,40.5585
2023-03-26T02:15:42.541Z,40.5592
2023-03-26T02:16:44.166Z,40.5369
2023-03-26T02:17:45.827Z,40.5392
2023-03-26T02:18:47.498Z,40.4962
2023-03-26T02:19:49.125Z,40.5723
2023-03-26T02:20:50.773Z,40.5969
2023-03-26T02:21:52.408Z,40.5785
2023-03-26T02:22:54.043Z,40.5369
2023-03-26T02:23:55.715Z,40.5077
2023-03-26T02:24:57.349Z,40.4515
2023-03-26T02:25:59.043Z,40.4638
2023-03-26T02:27:00.642Z,40.5023
2023-03-26T02:28:02.304Z,40.4323
2023-03-26T02:29:03.941Z,40.4862
2023-03-26T02:30:05.606Z,40.5215
2023-03-26T02:31:07.274Z,40.4638
2023-03-26T02:32:08.909Z,40.4446
2023-03-26T02:33:10.591Z,40.4569
2023-03-26T02:34:12.220Z,40.5654
2023-03-26T02:35:13.894Z,40.5038
2023-03-26T02:36:15.601Z,40.4477
2023-03-26T02:37:17.145Z,40.4669
2023-03-26T02:38:18.775Z,40.4854
2023-03-26T02:39:20.445Z,40.4746
2023-03-26T02:40:22.096Z,40.4915
2023-03-26T02:41:23.749Z,40.5115
2023-03-26T02:42:25.385Z,40.5362
2023-03-26T02:43:27.019Z,40.5723
2023-03-26T02:44:28.680Z,40.5838
2023-03-26T02:45:30.315Z,40.6608
2023-03-26T02:46:32.054Z,40.7962
2023-03-26T02:47:33.692Z,40.8008
2023-03-26T02:48:35.271Z,41.1831
2023-03-26T02:49:36.899Z,40.9708
2023-03-26T02:50:38.578Z,41.2523
2023-03-26T02:51:40.210Z,40.7762
2023-03-26T02:52:41.871Z,41.1254
2023-03-26T02:53:43.496Z,41.2862
2023-03-26T02:54:45.154Z,41.4362
2023-03-26T02:55:46.792Z,41.7554
2023-03-26T02:56:48.505Z,41.2308
2023-03-26T02:57:50.096Z,41.8108
2023-03-26T02:58:51.757Z,41.4485
2023-03-26T02:59:53.391Z,41.2954
2023-03-26T03:00:55.143Z,41.2608
2023-03-26T03:01:56.759Z,41.2377
2023-03-26T03:02:58.443Z,41.2115
2023-03-26T03:03:59.984Z,41.2154
2023-03-26T03:05:01.765Z,41.1985
2023-03-26T03:06:03.269Z,41.1785
2023-03-26T03:07:05.069Z,41.2423
2023-03-26T03:08:06.643Z,41.3262
2023-03-26T03:09:08.284Z,41.3262
2023-03-26T03:10:09.973Z,41.3323
2023-03-26T03:11:11.592Z,41.3862
2023-03-26T03:12:13.299Z,41.4646
2023-03-26T03:13:14.941Z,41.7185
2023-03-26T03:14:16.511Z,41.6131
2023-03-26T03:15:18.247Z,41.7469
2023-03-26T03:16:19.921Z,41.7162
2023-03-26T03:17:21.559Z,41.6715
2023-03-26T03:18:23.194Z,41.4938
2023-03-26T03:19:24.745Z,41.4569
2023-03-26T03:20:26.363Z,41.4631
2023-03-26T03:21:28.037Z,41.4754
2023-03-26T03:22:29.689Z,41.4523
2023-03-26T03:23:31.319Z,41.4792
2023-03-26T03:24:32.961Z,41.4962
2023-03-26T03:25:34.636Z,41.5046
2023-03-26T03:26:36.253Z,41.4669
2023-03-26T03:27:37.949Z,41.4462
2023-03-26T03:28:39.566Z,41.4831
2023-03-26T03:29:41.212Z,41.4623
2023-03-26T03:30:42.897Z,41.4708
2023-03-26T03:31:44.520Z,41.4915
2023-03-26T03:32:46.238Z,41.5077
2023-03-26T03:33:47.819Z,41.5446
2023-03-26T03:34:49.438Z,41.5462
2023-03-26T03:35:51.113Z,41.4946
2023-03-26T03:36:52.726Z,41.4869
2023-03-26T03:37:54.415Z,41.5123
2023-03-26T03:38:56.041Z,41.5346
2023-03-26T03:39:57.694Z,41.5285
2023-03-26T03:40:59.324Z,41.5169
2023-03-26T03:42:00.998Z,41.5431
2023-03-26T03:43:02.665Z,41.5615
2023-03-26T03:44:04.300Z,41.5446
2023-03-26T03:45:05.928Z,41.5177
2023-03-26T03:46:07.639Z,41.5054
2023-03-26T03:47:09.211Z,41.4854
2023-03-26T03:48:10.942Z,41.4415
2023-03-26T03:49:12.526Z,41.5354
2023-03-26T03:50:14.200Z,41.5123
2023-03-26T03:51:15.841Z,41.5085
2023-03-26T03:52:17.487Z,41.5223
2023-03-26T03:53:19.144Z,41.5185
2023-03-26T03:54:20.786Z,41.5246
2023-03-26T03:55:22.409Z,41.5115
2023-03-26T03:56:24.101Z,41.4808
2023-03-26T03:57:25.728Z,41.4962
2023-03-26T03:58:27.424Z,41.4408
2023-03-26T03:59:29.004Z,41.4608
2023-03-26T04:00:30.696Z,41.5000
2023-03-26T04:01:32.304Z,41.4608
2023-03-26T04:02:34.076Z,41.4808
2023-03-26T04:03:35.778Z,41.4338
2023-03-26T04:04:37.331Z,41.4431
2023-03-26T04:05:38.920Z,41.4877
2023-03-26T04:06:40.579Z,41.4654
2023-03-26T04:07:42.206Z,41.4569
2023-03-26T04:08:43.995Z,41.5023
2023-03-26T04:09:45.504Z,41.4669
2023-03-26T04:10:47.163Z,41.5331
2023-03-26T04:11:48.802Z,41.4723
2023-03-26T04:12:50.461Z,41.4569
2023-03-26T04:13:52.113Z,41.4577
2023-03-26T04:14:53.756Z,41.4400
2023-03-26T04:15:55.656Z,41.4623
2023-03-26T04:16:57.061Z,41.4908
2023-03-26T04:17:58.760Z,41.5146
2023-03-26T04:19:00.371Z,41.5508
2023-03-26T04:20:01.983Z,41.5562
2023-03-26T04:21:03.638Z,41.4223
2023-03-26T04:22:05.288Z,41.4954
2023-03-26T04:23:06.948Z,41.5231
2023-03-26T04:24:08.597Z,41.4846
2023-03-26T04:25:10.259Z,41.4738
2023-03-26T04:26:11.867Z,41.5154
2023-03-26T04:27:13.527Z,41.5300
2023-03-26T04:28:15.162Z,41.4615
2023-03-26T04:29:16.844Z,41.4700
2023-03-26T04:30:18.456Z,41.5277
2023-03-26T04:31:20.163Z,41.5315
2023-03-26T04:32:21.773Z,41.4431
2023-03-26T04:33:23.438Z,41.4854
2023-03-26T04:34:25.127Z,41.5177
2023-03-26T04:35:26.763Z,41.5515
2023-03-26T04:36:28.390Z,41.4692
2023-03-26T04:37:30.020Z,41.4885
2023-03-26T04:38:31.645Z,41.5015
2023-03-26T04:39:33.352Z,41.5215
2023-03-26T04:40:34.969Z,41.5038
2023-03-26T04:41:36.630Z,41.4923
2023-03-26T04:42:38.253Z,41.4200
2023-03-26T04:43:39.929Z,41.4985
2023-03-26T04:44:41.638Z,41.5238
2023-03-26T04:45:43.209Z,41.5262
2023-03-26T04:46:44.853Z,41.5738
2023-03-26T04:47:46.802Z,41.5985
2023-03-26T04:48:48.141Z,41.5223
2023-03-26T04:49:49.839Z,41.5638
2023-03-26T04:50:51.448Z,41.4708
2023-03-26T04:51:53.095Z,41.4969
2023-03-26T04:52:54.750Z,41.5300
2023-03-26T04:53:56.418Z,41.5300
2023-03-26T04:54:58.060Z,41.5400
2023-03-26T04:55:59.699Z,41.5577
2023-03-26T04:57:01.343Z,41.5854
2023-03-26T04:58:02.986Z,41.5385
2023-03-26T04:59:04.628Z,41.5469
2023-03-26T05:00:06.317Z,41.5577
2023-03-26T05:01:10.318Z,41.5454
2023-03-26T05:02:09.620Z,41.5808
2023-03-26T05:03:11.218Z,41.5538
2023-03-26T05:04:12.893Z,41.5731
2023-03-26T05:05:14.543Z,41.5292
2023-03-26T05:06:16.195Z,41.5477
2023-03-26T05:07:17.819Z,41.5308
2023-03-26T05:08:19.492Z,41.5700
2023-03-26T05:09:21.126Z,41.6131
2023-03-26T05:10:22.869Z,41.6238
2023-03-26T05:11:24.430Z,41.6485
2023-03-26T05:12:26.100Z,41.6862
2023-03-26T05:13:27.713Z,41.6746
2023-03-26T05:14:29.390Z,41.6400
2023-03-26T05:15:31.053Z,41.5954
2023-03-26T05:16:32.706Z,41.6415
2023-03-26T05:17:34.382Z,41.6531
2023-03-26T05:18:36.015Z,41.6631
2023-03-26T05:19:37.624Z,41.6408
2023-03-26T05:20:39.328Z,41.6538
2023-03-26T05:21:40.933Z,41.6469
2023-03-26T05:22:42.592Z,41.6346
2023-03-26T05:23:44.233Z,41.6669
2023-03-26T05:24:45.911Z,41.6800
2023-03-26T05:25:47.567Z,41.6423
2023-03-26T05:26:49.205Z,41.6785
2023-03-26T05:27:50.820Z,41.6523
2023-03-26T05:28:52.733Z,41.6246
2023-03-26T05:29:54.109Z,41.6792
2023-03-26T05:30:55.984Z,41.6292
2023-03-26T05:31:57.432Z,41.6562
2023-03-26T05:32:59.125Z,41.6723
2023-03-26T05:34:00.861Z,41.7162
2023-03-26T05:35:02.352Z,41.7077
2023-03-26T05:36:04.081Z,41.6662
2023-03-26T05:37:05.667Z,41.6700
2023-03-26T05:38:07.317Z,41.6869
2023-03-26T05:39:08.947Z,41.7431
2023-03-26T05:40:10.640Z,41.6908
2023-03-26T05:41:12.285Z,41.6646
2023-03-26T05:42:13.922Z,41.6754
2023-03-26T05:43:15.549Z,41.6815
2023-03-26T05:44:17.234Z,41.6831
2023-03-26T05:45:18.853Z,41.7069
2023-03-26T05:46:20.653Z,41.7008
2023-03-26T05:47:22.143Z,41.7069
2023-03-26T05:48:23.828Z,41.7231
2023-03-26T05:49:25.460Z,41.7277
2023-03-26T05:50:27.129Z,41.7623
2023-03-26T05:51:28.775Z,41.7500
2023-03-26T05:52:30.430Z,41.7208
2023-03-26T05:53:32.066Z,41.7115
2023-03-26T05:54:33.740Z,41.7423
2023-03-26T05:55:35.365Z,41.8038
2023-03-26T05:56:37.175Z,41.7954
2023-03-26T05:57:38.734Z,41.8177
2023-03-26T05:58:40.413Z,41.7723
2023-03-26T05:59:42.029Z,41.8162
2023-03-26T06:00:43.705Z,41.8177
2023-03-26T06:01:45.362Z,41.7992
2023-03-26T06:02:47.091Z,41.7746
2023-03-26T06:03:48.707Z,41.7608
2023-03-26T06:04:50.349Z,41.7454
2023-03-26T06:05:51.933Z,41.7500
2023-03-26T06:06:53.634Z,41.7631
2023-03-26T06:07:55.224Z,41.7723
2023-03-26T06:09:01.910Z,41.7654
2023-03-26T06:09:58.533Z,41.7769
2023-03-26T06:11:00.221Z,41.8377
2023-03-26T06:12:01.874Z,41.7792
2023-03-26T06:13:03.513Z,41.7946
2023-03-26T06:14:05.126Z,41.8023
2023-03-26T06:15:06.807Z,41.7731
2023-03-26T06:16:08.459Z,41.7477
2023-03-26T06:17:10.180Z,41.7685
2023-03-26T06:18:11.791Z,41.8008
2023-03-26T06:19:13.519Z,38.1269
2023-03-26T06:20:15.037Z,35.6608
2023-03-26T06:21:16.704Z,35.1185
2023-03-26T06:22:18.358Z,35.5723
2023-03-26T06:23:19.996Z,36.0423
2023-03-26T06:24:21.630Z,35.9238
2023-03-26T06:25:23.295Z,35.3892
2023-03-26T06:26:24.936Z,35.8823
2023-03-26T06:27:26.625Z,36.2554
2023-03-26T06:28:28.244Z,36.0815
2023-03-26T06:29:29.918Z,35.9662
2023-03-26T06:30:31.551Z,35.8985
2023-03-26T06:31:33.257Z,35.9231
2023-03-26T06:32:34.913Z,36.1954
2023-03-26T06:33:36.517Z,37.0315
2023-03-26T06:34:38.146Z,37.5000
2023-03-26T06:35:39.855Z,37.2846
2023-03-26T06:36:41.465Z,37.1538
2023-03-26T06:37:43.146Z,37.1546
2023-03-26T06:38:44.770Z,37.2938
2023-03-26T06:39:46.429Z,37.0877
2023-03-26T06:40:48.069Z,37.1654
2023-03-26T06:41:49.730Z,37.1477
2023-03-26T06:43:08.643Z,37.3215
2023-03-26T06:43:53.048Z,37.5415
2023-03-26T06:44:54.669Z,38.6015
2023-03-26T06:45:56.357Z,38.2946
2023-03-26T06:46:58.046Z,38.7600
2023-03-26T06:47:59.734Z,38.7000
2023-03-26T06:49:01.283Z,39.1162
2023-03-26T06:50:02.977Z,39.1469
2023-03-26T06:51:04.608Z,39.6131
2023-03-26T06:52:06.274Z,40.0262
2023-03-26T06:53:07.913Z,39.2623
2023-03-26T06:54:09.563Z,39.3085
2023-03-26T06:55:11.220Z,38.1015
2023-03-26T06:56:12.873Z,38.2123
2023-03-26T06:57:14.527Z,38.3477
2023-03-26T06:58:16.210Z,38.5992
2023-03-26T06:59:17.846Z,38.1977
2023-03-26T07:00:19.485Z,38.3585
2023-03-26T07:01:21.165Z,38.5131
2023-03-26T07:02:22.819Z,38.5969
2023-03-26T07:03:24.433Z,38.6338
2023-03-26T07:04:26.110Z,38.6715
2023-03-26T07:05:27.781Z,38.7362
2023-03-26T07:06:29.391Z,38.8554
2023-03-26T07:07:31.047Z,38.9285
2023-03-26T07:08:32.720Z,39.0692
2023-03-26T07:09:34.360Z,39.0946
2023-03-26T07:10:35.987Z,39.2138
2023-03-26T07:11:37.656Z,39.3000
2023-03-26T07:12:39.292Z,39.3662
2023-03-26T07:13:40.978Z,39.4923
2023-03-26T07:14:42.601Z,39.5146
2023-03-26T07:15:44.282Z,39.6315
2023-03-26T07:16:45.903Z,39.8523
2023-03-26T07:17:47.577Z,40.2238
2023-03-26T07:18:49.452Z,40.4231
2023-03-26T07:19:50.874Z,40.7177
2023-03-26T07:20:52.605Z,40.5962
2023-03-26T07:21:54.177Z,40.5500
2023-03-26T07:22:55.801Z,40.5100
2023-03-26T07:23:57.493Z,40.6662
2023-03-26T07:24:59.111Z,40.7323
2023-03-26T07:26:00.786Z,40.7838
2023-03-26T07:27:02.429Z,40.8100
2023-03-26T07:28:04.088Z,40.7692
2023-03-26T07:29:05.728Z,41.2946
2023-03-26T07:30:07.396Z,41.5700
2023-03-26T07:31:09.015Z,41.8292
2023-03-26T07:32:10.680Z,42.0908
2023-03-26T07:33:12.314Z,42.0569
2023-03-26T07:34:14.011Z,41.9762
2023-03-26T07:35:15.629Z,42.2085
2023-03-26T07:36:17.304Z,42.3838
2023-03-26T07:37:18.925Z,42.2246
2023-03-26T07:38:20.592Z,41.9377
2023-03-26T07:39:22.250Z,41.7446
2023-03-26T07:40:23.900Z,41.5585
2023-03-26T07:41:25.537Z,41.6392
2023-03-26T07:42:27.223Z,41.7231
2023-03-26T07:43:28.852Z,41.7131
2023-03-26T07:44:30.525Z,41.6492
2023-03-26T07:45:32.165Z,41.7931
2023-03-26T07:46:33.800Z,41.7862
2023-03-26T07:47:35.478Z,41.9085
2023-03-26T07:48:37.104Z,41.8238
2023-03-26T07:49:38.758Z,42.2554
2023-03-26T07:50:40.410Z,42.3508
2023-03-26T07:51:42.048Z,42.2115
2023-03-26T07:52:43.708Z,42.2908
2023-03-26T07:53:45.341Z,42.6885
2023-03-26T07:54:47.048Z,42.7792
2023-03-26T07:55:48.663Z,42.7715
2023-03-26T07:56:50.386Z,42.6508
2023-03-26T07:57:51.936Z,42.5215
2023-03-26T07:58:53.615Z,42.7846
2023-03-26T07:59:55.266Z,42.0985
2023-03-26T08:00:57.125Z,42.3054
2023-03-26T08:01:58.543Z,42.5762
2023-03-26T08:03:00.286Z,42.6954
2023-03-26T08:04:23.424Z,42.2485
2023-03-26T08:05:03.597Z,41.9615
2023-03-26T08:06:05.134Z,41.9185
2023-03-26T08:07:06.803Z,41.8615
2023-03-26T08:08:08.443Z,41.8477
2023-03-26T08:09:10.109Z,41.6669
2023-03-26T08:10:12.016Z,42.1977
2023-03-26T08:11:13.422Z,42.4354
2023-03-26T08:12:15.039Z,42.5800
2023-03-26T08:13:16.732Z,42.6754
2023-03-26T08:14:18.336Z,42.7685
2023-03-26T08:15:20.037Z,42.6808
2023-03-26T08:16:21.666Z,42.8815
2023-03-26T08:17:23.346Z,42.8754
2023-03-26T08:18:24.942Z,42.8177
2023-03-26T08:19:26.612Z,42.7885
2023-03-26T08:20:28.339Z,42.3592
2023-03-26T08:21:29.918Z,42.2808
2023-03-26T08:22:31.591Z,42.3792
2023-03-26T08:23:33.220Z,42.6654
2023-03-26T08:24:34.893Z,42.7446
2023-03-26T08:25:38.001Z,42.6062
2023-03-26T08:26:38.146Z,42.5808
2023-03-26T08:27:39.809Z,42.7631
2023-03-26T08:28:41.471Z,42.6985
2023-03-26T08:29:43.133Z,42.5562
2023-03-26T08:30:44.812Z,42.6208
2023-03-26T08:31:46.411Z,42.7985
2023-03-26T08:32:48.132Z,42.9669
2023-03-26T08:33:49.731Z,42.8869
2023-03-26T08:34:51.402Z,42.8531
2023-03-26T08:35:53.132Z,42.8423
2023-03-26T08:36:54.721Z,42.8415
2023-03-26T08:37:56.332Z,42.9138
2023-03-26T08:38:58.001Z,42.7685
2023-03-26T08:39:59.643Z,42.7915
2023-03-26T08:41:01.332Z,42.8215
2023-03-26T08:42:02.931Z,42.7538
2023-03-26T08:43:04.602Z,42.6615
2023-03-26T08:44:06.260Z,42.6546
2023-03-26T08:45:07.927Z,42.7308
2023-03-26T08:46:09.597Z,42.7877
2023-03-26T08:47:11.204Z,42.7223
2023-03-26T08:48:12.844Z,42.7692
2023-03-26T08:49:14.501Z,42.7700
2023-03-26T08:50:16.238Z,42.7500
2023-03-26T08:51:17.836Z,42.7092
2023-03-26T08:52:19.446Z,42.7315
2023-03-26T08:53:21.116Z,42.7769
2023-03-26T08:54:22.750Z,42.8254
2023-03-26T08:55:24.423Z,42.8023
2023-03-26T08:56:26.098Z,42.7846
2023-03-26T08:57:27.716Z,42.7669
2023-03-26T08:58:29.352Z,42.7800
2023-03-26T08:59:31.029Z,42.7908
2023-03-26T09:00:32.663Z,42.7892
2023-03-26T09:01:34.393Z,42.8038
2023-03-26T09:02:36.030Z,42.7785
2023-03-26T09:03:37.625Z,42.8062
2023-03-26T09:04:39.272Z,42.8192
2023-03-26T09:05:40.958Z,42.7485
2023-03-26T09:06:42.646Z,42.8300
2023-03-26T09:07:44.293Z,42.8138
2023-03-26T09:08:54.212Z,42.8054
2023-03-26T09:09:47.505Z,42.7431
2023-03-26T09:10:49.154Z,42.7177
2023-03-26T09:11:50.823Z,42.7008
2023-03-26T09:12:52.440Z,42.7777
2023-03-26T09:13:54.132Z,42.7462
2023-03-26T09:14:55.757Z,42.7015
2023-03-26T09:15:57.511Z,42.6708
2023-03-26T09:16:59.080Z,42.6792
2023-03-26T09:18:00.762Z,42.6738
2023-03-26T09:19:02.345Z,42.6492
2023-03-26T09:20:04.026Z,42.6500
2023-03-26T09:21:05.673Z,42.7215
2023-03-26T09:22:07.380Z,42.7269
2023-03-26T09:23:08.960Z,42.7208
2023-03-26T09:24:10.624Z,42.7262
2023-03-26T09:25:12.276Z,42.6285
2023-03-26T09:26:13.929Z,42.6315
2023-03-26T09:27:15.589Z,42.6938
2023-03-26T09:28:17.225Z,42.6377
2023-03-26T09:29:18.855Z,42.6585
2023-03-26T09:30:20.505Z,42.6146
2023-03-26T09:31:22.202Z,42.5954
2023-03-26T09:32:23.942Z,42.6346
2023-03-26T09:33:25.477Z,42.6846
2023-03-26T09:34:27.144Z,42.6677
2023-03-26T09:35:28.764Z,42.5992
2023-03-26T09:36:30.472Z,42.6477
2023-03-26T09:37:32.083Z,42.6785
2023-03-26T09:38:33.741Z,42.6515
2023-03-26T09:39:35.363Z,42.7200
2023-03-26T09:40:37.035Z,42.7831
2023-03-26T09:41:38.658Z,42.9238
2023-03-26T09:42:40.359Z,47.0462
2023-03-26T09:43:41.996Z,40.6138
2023-03-26T09:44:43.628Z,42.9592
2023-03-26T09:45:45.275Z,44.0669
2023-03-26T09:46:46.936Z,43.5900
2023-03-26T09:47:48.648Z,43.3215
2023-03-26T09:48:50.237Z,43.2769
2023-03-26T09:49:51.865Z,43.4762
2023-03-26T09:50:53.719Z,43.6292
2023-03-26T09:51:55.146Z,43.6946
2023-03-26T09:52:56.845Z,43.7515
2023-03-26T09:53:58.447Z,43.7008
2023-03-26T09:55:00.162Z,43.6754
2023-03-26T09:56:01.772Z,43.6792
2023-03-26T09:57:03.465Z,43.6838
2023-03-26T09:58:05.134Z,43.6838
2023-03-26T09:59:06.854Z,43.7323
2023-03-26T10:00:08.423Z,43.7292
2023-03-26T10:01:10.144Z,43.7954
2023-03-26T10:02:11.717Z,43.5692
2023-03-26T10:03:13.465Z,39.5162
2023-03-26T10:04:15.024Z,36.2854
2023-03-26T10:05:16.690Z,36.0500
2023-03-26T10:06:18.313Z,36.4177
2023-03-26T10:07:19.984Z,36.3769
2023-03-26T10:08:21.641Z,36.3492
2023-03-26T10:09:23.290Z,36.9062
2023-03-26T10:10:24.906Z,36.4600
2023-03-26T10:11:26.588Z,36.8800
2023-03-26T10:12:28.222Z,37.7892
2023-03-26T10:13:29.928Z,37.9954
2023-03-26T10:14:31.532Z,38.0246
2023-03-26T10:15:33.198Z,37.9808
2023-03-26T10:16:34.880Z,38.1254
2023-03-26T10:17:37.179Z,38.2677
2023-03-26T10:18:38.166Z,38.3000
2023-03-26T10:19:39.808Z,38.3823
2023-03-26T10:20:41.434Z,38.4869
2023-03-26T10:21:43.096Z,38.5462
2023-03-26T10:22:44.742Z,38.6854
2023-03-26T10:23:46.425Z,38.7908
2023-03-26T10:24:48.044Z,38.8631
2023-03-26T10:25:49.745Z,38.9462
2023-03-26T10:27:08.589Z,39.0462
2023-03-26T10:27:53.014Z,39.1254
2023-03-26T10:28:54.677Z,39.1823
2023-03-26T10:29:56.325Z,39.2162
2023-03-26T10:30:58.118Z,39.3115
2023-03-26T10:31:59.616Z,39.3892
2023-03-26T10:33:01.324Z,39.4777
2023-03-26T10:34:02.959Z,39.4238
2023-03-26T10:35:04.555Z,39.5354
2023-03-26T10:36:06.251Z,39.5500
2023-03-26T10:37:07.851Z,39.6215
2023-03-26T10:38:09.527Z,39.7015
2023-03-26T10:39:11.183Z,39.6685
2023-03-26T10:40:12.830Z,39.6600
2023-03-26T10:41:14.491Z,39.7277
2023-03-26T10:42:16.123Z,39.8008
2023-03-26T10:43:17.763Z,39.7892
2023-03-26T10:44:19.508Z,39.8723
2023-03-26T10:45:21.096Z,39.9246
2023-03-26T10:46:22.772Z,39.9754
2023-03-26T10:47:24.432Z,40.0285
2023-03-26T10:48:26.054Z,40.0892
2023-03-26T10:49:27.750Z,40.0938
2023-03-26T10:50:29.362Z,40.0531
2023-03-26T10:51:30.972Z,40.1415
2023-03-26T10:52:32.670Z,40.1069
2023-03-26T10:53:34.295Z,40.1569
2023-03-26T10:54:35.999Z,40.2369
2023-03-26T10:55:37.596Z,40.2992
2023-03-26T10:56:39.290Z,40.3477
2023-03-26T10:57:40.896Z,40.3623
2023-03-26T10:58:48.590Z,40.3885
2023-03-26T10:59:44.247Z,40.4838
2023-03-26T11:00:45.892Z,40.5131
2023-03-26T11:01:47.524Z,40.5192
2023-03-26T11:02:49.225Z,40.5477
2023-03-26T11:03:50.827Z,40.5877
2023-03-26T11:04:52.517Z,40.6185
2023-03-26T11:05:54.191Z,40.6331
2023-03-26T11:06:55.800Z,40.6838
2023-03-26T11:07:57.430Z,40.8492
2023-03-26T11:08:59.136Z,40.9477
2023-03-26T11:10:00.746Z,41.2338
2023-03-26T11:11:02.395Z,41.5262
2023-03-26T11:12:26.223Z,41.7492
2023-03-26T11:13:05.691Z,41.8254
2023-03-26T11:14:07.339Z,41.9500
2023-03-26T11:15:09.106Z,41.6592
2023-03-26T11:16:10.642Z,41.7554
2023-03-26T11:17:14.915Z,42.1992
2023-03-26T11:18:13.963Z,41.8831
2023-03-26T11:19:15.591Z,42.2892
2023-03-26T11:20:17.292Z,42.1785
2023-03-26T11:21:20.635Z,41.8323
2023-03-26T11:22:20.527Z,41.8977
2023-03-26T11:23:22.211Z,41.8008
2023-03-26T11:24:23.812Z,41.8031
2023-03-26T11:25:25.532Z,41.8408
2023-03-26T11:26:27.137Z,41.8769
2023-03-26T11:27:28.792Z,41.9438
2023-03-26T11:28:30.446Z,42.2069
2023-03-26T11:29:33.494Z,42.6015
2023-03-26T11:30:33.767Z,42.5877
2023-03-26T11:31:35.433Z,42.4377
2023-03-26T11:32:37.070Z,42.3485
2023-03-26T11:33:38.689Z,42.2292
2023-03-26T11:34:40.347Z,42.1954
2023-03-26T11:35:42.013Z,42.2408
2023-03-26T11:36:43.630Z,42.2923
2023-03-26T11:37:45.308Z,42.2946
2023-03-26T11:38:46.965Z,42.3154
2023-03-26T11:39:48.584Z,42.3777
2023-03-26T11:40:50.249Z,42.4185
2023-03-26T11:41:51.901Z,42.5954
2023-03-26T11:42:53.540Z,42.6438
2023-03-26T11:43:55.217Z,42.4877
2023-03-26T11:44:56.861Z,42.3938
2023-03-26T11:45:58.550Z,42.3292
2023-03-26T11:47:00.126Z,42.3231
2023-03-26T11:48:01.854Z,42.2962
2023-03-26T11:49:03.407Z,42.3069
2023-03-26T11:50:05.143Z,42.3162
2023-03-26T11:51:06.783Z,42.3085
2023-03-26T11:52:08.393Z,42.2846
2023-03-26T11:53:10.039Z,42.2669
2023-03-26T11:54:11.714Z,42.2992
2023-03-26T11:55:13.343Z,42.3446
2023-03-26T11:56:15.174Z,42.3569
2023-03-26T11:57:16.694Z,42.3654
2023-03-26T11:58:18.307Z,42.3915
2023-03-26T11:59:21.650Z,42.3485
2023-03-26T12:00:21.607Z,42.3246
2023-03-26T12:01:23.250Z,42.3392
2023-03-26T12:02:25.076Z,42.3554
2023-03-26T12:03:26.551Z,42.3885
2023-03-26T12:04:30.604Z,42.3892
2023-03-26T12:05:29.840Z,42.3938
2023-03-26T12:06:31.536Z,42.3808
2023-03-26T12:07:33.146Z,42.3669
2023-03-26T12:08:34.814Z,42.3277
2023-03-26T12:09:36.444Z,42.2862
2023-03-26T12:10:38.543Z,42.2808
2023-03-26T12:11:39.771Z,42.2792
2023-03-26T12:12:41.424Z,42.2585
2023-03-26T12:13:43.052Z,42.2462
2023-03-26T12:14:44.703Z,42.2631
2023-03-26T12:15:46.350Z,42.2408
2023-03-26T12:16:48.060Z,42.2346
2023-03-26T12:17:49.651Z,42.2292
2023-03-26T12:18:51.307Z,42.2423
2023-03-26T12:19:52.947Z,42.2654
2023-03-26T12:20:54.734Z,42.2300
2023-03-26T12:21:56.265Z,42.2408
2023-03-26T12:22:57.913Z,42.2338
2023-03-26T12:23:59.548Z,42.2500
2023-03-26T12:25:01.200Z,42.2608